sensor_id;sensor_type;location;lat;lon;timestamp;temperature;humidity
19248;DHT22;9758;48.640;8.148;2023-05-21T00:01:37;18.30;49.90
19248;DHT22;9758;48.640;8.148;2023-05-21T00:04:05;18.30;49.90
19248;DHT22;9758;48.640;8.148;2023-05-21T00:06:32;18.30;49.90
19248;DHT22;9758;48.640;8.148;2023-05-21T00:09:00;18.30;50.00
19248;DHT22;9758;48.640;8.148;2023-05-21T00:11:27;18.30;50.00
19248;DHT22;9758;48.640;8.148;2023-05-21T00:13:54;18.20;50.00
19248;DHT22;9758;48.640;8.148;2023-05-21T00:16:21;18.20;49.90
19248;DHT22;9758;48.640;8.148;2023-05-21T00:18:53;18.20;50.00
19248;DHT22;9758;48.640;8.148;2023-05-21T00:21:20;18.20;50.00
19248;DHT22;9758;48.640;8.148;2023-05-21T00:23:47;18.20;50.10
19248;DHT22;9758;48.640;8.148;2023-05-21T00:26:14;18.20;50.10
19248;DHT22;9758;48.640;8.148;2023-05-21T00:28:41;18.20;50.10
19248;DHT22;9758;48.640;8.148;2023-05-21T00:31:08;18.20;50.20
19248;DHT22;9758;48.640;8.148;2023-05-21T00:33:34;18.10;50.10
19248;DHT22;9758;48.640;8.148;2023-05-21T00:36:03;18.10;50.10
19248;DHT22;9758;48.640;8.148;2023-05-21T00:38:30;18.10;50.20
19248;DHT22;9758;48.640;8.148;2023-05-21T00:40:59;18.00;50.20
19248;DHT22;9758;48.640;8.148;2023-05-21T00:43:26;18.00;50.30
19248;DHT22;9758;48.640;8.148;2023-05-21T00:45:53;18.00;50.30
19248;DHT22;9758;48.640;8.148;2023-05-21T00:48:21;18.00;50.40
19248;DHT22;9758;48.640;8.148;2023-05-21T00:50:49;18.00;50.40
19248;DHT22;9758;48.640;8.148;2023-05-21T00:53:18;17.90;50.40
19248;DHT22;9758;48.640;8.148;2023-05-21T00:55:45;17.90;50.40
19248;DHT22;9758;48.640;8.148;2023-05-21T00:58:13;17.90;50.40
19248;DHT22;9758;48.640;8.148;2023-05-21T01:00:42;17.90;50.50
19248;DHT22;9758;48.640;8.148;2023-05-21T01:03:09;17.80;50.40
19248;DHT22;9758;48.640;8.148;2023-05-21T01:05:56;17.90;50.50
19248;DHT22;9758;48.640;8.148;2023-05-21T01:08:25;17.80;50.60
19248;DHT22;9758;48.640;8.148;2023-05-21T01:10:53;17.80;50.50
19248;DHT22;9758;48.640;8.148;2023-05-21T01:13:20;17.80;50.50
19248;DHT22;9758;48.640;8.148;2023-05-21T01:15:48;17.70;50.50
19248;DHT22;9758;48.640;8.148;2023-05-21T01:18:16;17.70;50.60
19248;DHT22;9758;48.640;8.148;2023-05-21T01:20:44;17.70;50.60
19248;DHT22;9758;48.640;8.148;2023-05-21T01:23:14;17.60;50.60
19248;DHT22;9758;48.640;8.148;2023-05-21T01:25:41;17.60;50.60
19248;DHT22;9758;48.640;8.148;2023-05-21T01:28:08;17.60;50.60
19248;DHT22;9758;48.640;8.148;2023-05-21T01:30:35;17.60;50.70
19248;DHT22;9758;48.640;8.148;2023-05-21T01:33:05;17.60;50.80
19248;DHT22;9758;48.640;8.148;2023-05-21T01:35:35;17.50;50.70
19248;DHT22;9758;48.640;8.148;2023-05-21T01:38:11;17.50;50.80
19248;DHT22;9758;48.640;8.148;2023-05-21T01:40:44;17.50;50.80
19248;DHT22;9758;48.640;8.148;2023-05-21T01:43:13;17.40;50.70
19248;DHT22;9758;48.640;8.148;2023-05-21T01:45:42;17.50;50.80
19248;DHT22;9758;48.640;8.148;2023-05-21T01:48:10;17.40;50.80
19248;DHT22;9758;48.640;8.148;2023-05-21T01:50:38;17.40;50.90
19248;DHT22;9758;48.640;8.148;2023-05-21T01:53:06;17.40;50.90
19248;DHT22;9758;48.640;8.148;2023-05-21T01:55:32;17.40;51.00
19248;DHT22;9758;48.640;8.148;2023-05-21T01:58:01;17.30;51.60
19248;DHT22;9758;48.640;8.148;2023-05-21T02:00:28;17.30;51.00
19248;DHT22;9758;48.640;8.148;2023-05-21T02:02:56;17.30;51.00
19248;DHT22;9758;48.640;8.148;2023-05-21T02:05:24;17.30;51.00
19248;DHT22;9758;48.640;8.148;2023-05-21T02:07:51;17.30;51.10
19248;DHT22;9758;48.640;8.148;2023-05-21T02:10:18;17.20;51.10
19248;DHT22;9758;48.640;8.148;2023-05-21T02:12:45;17.20;51.10
19248;DHT22;9758;48.640;8.148;2023-05-21T02:15:13;17.20;51.10
19248;DHT22;9758;48.640;8.148;2023-05-21T02:17:42;17.20;51.20
19248;DHT22;9758;48.640;8.148;2023-05-21T02:20:09;17.10;51.10
19248;DHT22;9758;48.640;8.148;2023-05-21T02:22:37;17.10;51.20
19248;DHT22;9758;48.640;8.148;2023-05-21T02:25:05;17.10;51.20
19248;DHT22;9758;48.640;8.148;2023-05-21T02:27:32;17.20;51.30
19248;DHT22;9758;48.640;8.148;2023-05-21T02:29:59;17.10;51.30
19248;DHT22;9758;48.640;8.148;2023-05-21T02:32:27;17.10;51.30
19248;DHT22;9758;48.640;8.148;2023-05-21T02:34:56;17.10;51.30
19248;DHT22;9758;48.640;8.148;2023-05-21T02:37:24;17.20;51.40
19248;DHT22;9758;48.640;8.148;2023-05-21T02:39:52;17.10;51.30
19248;DHT22;9758;48.640;8.148;2023-05-21T02:42:18;17.20;51.40
19248;DHT22;9758;48.640;8.148;2023-05-21T02:44:45;17.10;51.30
19248;DHT22;9758;48.640;8.148;2023-05-21T02:47:12;17.10;51.30
19248;DHT22;9758;48.640;8.148;2023-05-21T02:49:40;17.10;51.30
19248;DHT22;9758;48.640;8.148;2023-05-21T02:52:07;17.00;51.30
19248;DHT22;9758;48.640;8.148;2023-05-21T02:54:34;17.00;51.40
19248;DHT22;9758;48.640;8.148;2023-05-21T02:57:00;17.00;51.40
19248;DHT22;9758;48.640;8.148;2023-05-21T02:59:27;17.00;51.40
19248;DHT22;9758;48.640;8.148;2023-05-21T03:01:54;16.90;51.40
19248;DHT22;9758;48.640;8.148;2023-05-21T03:04:21;16.90;51.50
19248;DHT22;9758;48.640;8.148;2023-05-21T03:06:49;16.90;51.50
19248;DHT22;9758;48.640;8.148;2023-05-21T03:09:19;16.90;51.50
19248;DHT22;9758;48.640;8.148;2023-05-21T03:11:46;16.90;51.60
19248;DHT22;9758;48.640;8.148;2023-05-21T03:14:13;16.80;51.50
19248;DHT22;9758;48.640;8.148;2023-05-21T03:16:40;16.80;51.60
19248;DHT22;9758;48.640;8.148;2023-05-21T03:19:08;16.80;51.60
19248;DHT22;9758;48.640;8.148;2023-05-21T03:21:35;16.80;51.60
19248;DHT22;9758;48.640;8.148;2023-05-21T03:24:04;16.80;51.60
19248;DHT22;9758;48.640;8.148;2023-05-21T03:26:31;16.80;51.60
19248;DHT22;9758;48.640;8.148;2023-05-21T03:28:58;16.80;51.70
19248;DHT22;9758;48.640;8.148;2023-05-21T03:31:26;16.70;51.60
19248;DHT22;9758;48.640;8.148;2023-05-21T03:33:53;16.80;51.70
19248;DHT22;9758;48.640;8.148;2023-05-21T03:36:20;16.80;51.80
19248;DHT22;9758;48.640;8.148;2023-05-21T03:38:46;16.70;51.70
19248;DHT22;9758;48.640;8.148;2023-05-21T03:41:14;16.70;51.70
19248;DHT22;9758;48.640;8.148;2023-05-21T03:43:41;16.70;52.40
19248;DHT22;9758;48.640;8.148;2023-05-21T03:46:08;16.70;51.70
19248;DHT22;9758;48.640;8.148;2023-05-21T03:48:35;16.70;51.80
19248;DHT22;9758;48.640;8.148;2023-05-21T03:51:02;16.70;51.80
19248;DHT22;9758;48.640;8.148;2023-05-21T03:53:28;16.60;51.80
19248;DHT22;9758;48.640;8.148;2023-05-21T03:55:55;16.60;51.80
19248;DHT22;9758;48.640;8.148;2023-05-21T03:58:24;16.60;51.90
19248;DHT22;9758;48.640;8.148;2023-05-21T04:00:51;16.60;51.90
19248;DHT22;9758;48.640;8.148;2023-05-21T04:03:18;16.60;51.90
19248;DHT22;9758;48.640;8.148;2023-05-21T04:05:45;16.60;51.90
19248;DHT22;9758;48.640;8.148;2023-05-21T04:08:13;16.60;51.90
19248;DHT22;9758;48.640;8.148;2023-05-21T04:10:40;16.50;51.90
19248;DHT22;9758;48.640;8.148;2023-05-21T04:13:07;16.50;51.90
19248;DHT22;9758;48.640;8.148;2023-05-21T04:15:35;16.50;52.00
19248;DHT22;9758;48.640;8.148;2023-05-21T04:18:03;16.50;52.00
19248;DHT22;9758;48.640;8.148;2023-05-21T04:20:31;16.50;52.00
19248;DHT22;9758;48.640;8.148;2023-05-21T04:22:58;16.50;52.10
19248;DHT22;9758;48.640;8.148;2023-05-21T04:25:25;16.50;52.00
19248;DHT22;9758;48.640;8.148;2023-05-21T04:27:52;16.50;52.10
19248;DHT22;9758;48.640;8.148;2023-05-21T04:30:19;16.60;52.10
19248;DHT22;9758;48.640;8.148;2023-05-21T04:32:47;16.60;52.20
19248;DHT22;9758;48.640;8.148;2023-05-21T04:35:14;16.60;52.20
19248;DHT22;9758;48.640;8.148;2023-05-21T04:37:41;16.60;52.20
19248;DHT22;9758;48.640;8.148;2023-05-21T04:40:11;16.60;52.20
19248;DHT22;9758;48.640;8.148;2023-05-21T04:42:39;16.70;52.20
19248;DHT22;9758;48.640;8.148;2023-05-21T04:45:06;16.70;52.20
19248;DHT22;9758;48.640;8.148;2023-05-21T04:47:33;16.70;52.80
19248;DHT22;9758;48.640;8.148;2023-05-21T04:50:02;16.70;52.20
19248;DHT22;9758;48.640;8.148;2023-05-21T04:52:28;16.70;52.20
19248;DHT22;9758;48.640;8.148;2023-05-21T04:54:56;16.80;52.30
19248;DHT22;9758;48.640;8.148;2023-05-21T04:57:22;16.80;52.30
19248;DHT22;9758;48.640;8.148;2023-05-21T04:59:50;16.80;52.30
19248;DHT22;9758;48.640;8.148;2023-05-21T05:02:17;16.90;52.40
19248;DHT22;9758;48.640;8.148;2023-05-21T05:04:43;16.90;52.30
19248;DHT22;9758;48.640;8.148;2023-05-21T05:07:12;16.90;52.30
19248;DHT22;9758;48.640;8.148;2023-05-21T05:09:39;17.00;52.40
19248;DHT22;9758;48.640;8.148;2023-05-21T05:12:06;17.00;52.30
19248;DHT22;9758;48.640;8.148;2023-05-21T05:14:33;17.00;52.40
19248;DHT22;9758;48.640;8.148;2023-05-21T05:17:00;17.10;52.40
19248;DHT22;9758;48.640;8.148;2023-05-21T05:19:27;17.10;52.30
19248;DHT22;9758;48.640;8.148;2023-05-21T05:21:56;17.20;52.40
19248;DHT22;9758;48.640;8.148;2023-05-21T05:24:24;17.20;52.30
19248;DHT22;9758;48.640;8.148;2023-05-21T05:26:51;17.20;52.30
19248;DHT22;9758;48.640;8.148;2023-05-21T05:29:18;17.30;52.40
19248;DHT22;9758;48.640;8.148;2023-05-21T05:31:44;17.30;52.40
19248;DHT22;9758;48.640;8.148;2023-05-21T05:34:11;17.40;52.40
19248;DHT22;9758;48.640;8.148;2023-05-21T05:36:38;17.40;52.40
19248;DHT22;9758;48.640;8.148;2023-05-21T05:39:05;17.50;52.40
19248;DHT22;9758;48.640;8.148;2023-05-21T05:41:33;17.50;52.40
19248;DHT22;9758;48.640;8.148;2023-05-21T05:44:00;17.60;52.40
19248;DHT22;9758;48.640;8.148;2023-05-21T05:46:28;17.60;52.40
19248;DHT22;9758;48.640;8.148;2023-05-21T05:48:55;17.70;52.50
19248;DHT22;9758;48.640;8.148;2023-05-21T05:51:22;17.80;52.50
19248;DHT22;9758;48.640;8.148;2023-05-21T05:53:48;17.80;52.40
19248;DHT22;9758;48.640;8.148;2023-05-21T05:56:15;17.90;52.40
19248;DHT22;9758;48.640;8.148;2023-05-21T05:58:43;17.90;52.30
19248;DHT22;9758;48.640;8.148;2023-05-21T06:01:10;18.00;52.30
19248;DHT22;9758;48.640;8.148;2023-05-21T06:03:37;18.10;52.30
19248;DHT22;9758;48.640;8.148;2023-05-21T06:06:04;18.10;52.30
19248;DHT22;9758;48.640;8.148;2023-05-21T06:08:31;18.10;52.30
19248;DHT22;9758;48.640;8.148;2023-05-21T06:10:59;18.10;52.40
19248;DHT22;9758;48.640;8.148;2023-05-21T06:13:25;18.20;53.00
19248;DHT22;9758;48.640;8.148;2023-05-21T06:15:54;18.20;52.30
19248;DHT22;9758;48.640;8.148;2023-05-21T06:18:20;18.30;52.30
19248;DHT22;9758;48.640;8.148;2023-05-21T06:20:47;18.30;52.30
19248;DHT22;9758;48.640;8.148;2023-05-21T06:23:14;18.40;52.30
19248;DHT22;9758;48.640;8.148;2023-05-21T06:25:41;18.40;52.30
19248;DHT22;9758;48.640;8.148;2023-05-21T06:28:07;18.50;52.30
19248;DHT22;9758;48.640;8.148;2023-05-21T06:30:34;18.60;52.30
19248;DHT22;9758;48.640;8.148;2023-05-21T06:33:02;18.70;52.30
19248;DHT22;9758;48.640;8.148;2023-05-21T06:35:29;18.70;52.20
19248;DHT22;9758;48.640;8.148;2023-05-21T06:37:57;18.70;52.20
19248;DHT22;9758;48.640;8.148;2023-05-21T06:40:23;18.70;52.20
19248;DHT22;9758;48.640;8.148;2023-05-21T06:42:50;18.80;52.20
19248;DHT22;9758;48.640;8.148;2023-05-21T06:45:17;18.80;52.20
19248;DHT22;9758;48.640;8.148;2023-05-21T06:47:44;18.90;52.10
19248;DHT22;9758;48.640;8.148;2023-05-21T06:50:12;19.00;52.20
19248;DHT22;9758;48.640;8.148;2023-05-21T06:52:39;18.90;52.10
19248;DHT22;9758;48.640;8.148;2023-05-21T06:55:06;19.00;52.10
19248;DHT22;9758;48.640;8.148;2023-05-21T06:57:33;19.00;52.10
19248;DHT22;9758;48.640;8.148;2023-05-21T07:00:00;19.10;52.20
19248;DHT22;9758;48.640;8.148;2023-05-21T07:02:26;19.10;52.10
19248;DHT22;9758;48.640;8.148;2023-05-21T07:04:53;19.10;52.80
19248;DHT22;9758;48.640;8.148;2023-05-21T07:07:21;19.20;52.50
19248;DHT22;9758;48.640;8.148;2023-05-21T07:09:48;19.20;52.20
19248;DHT22;9758;48.640;8.148;2023-05-21T07:12:15;19.10;52.20
19248;DHT22;9758;48.640;8.148;2023-05-21T07:14:41;19.10;52.30
19248;DHT22;9758;48.640;8.148;2023-05-21T07:17:08;19.20;52.30
19248;DHT22;9758;48.640;8.148;2023-05-21T07:19:35;19.20;52.30
19248;DHT22;9758;48.640;8.148;2023-05-21T07:22:03;19.30;52.30
19248;DHT22;9758;48.640;8.148;2023-05-21T07:24:31;19.40;52.40
19248;DHT22;9758;48.640;8.148;2023-05-21T07:26:58;19.40;52.30
19248;DHT22;9758;48.640;8.148;2023-05-21T07:29:25;19.40;52.20
19248;DHT22;9758;48.640;8.148;2023-05-21T07:31:52;19.50;52.20
19248;DHT22;9758;48.640;8.148;2023-05-21T07:34:19;19.50;52.10
19248;DHT22;9758;48.640;8.148;2023-05-21T07:36:46;19.60;52.10
19248;DHT22;9758;48.640;8.148;2023-05-21T07:39:12;19.60;52.10
19248;DHT22;9758;48.640;8.148;2023-05-21T07:41:41;19.60;52.10
19248;DHT22;9758;48.640;8.148;2023-05-21T07:44:30;19.70;52.20
19248;DHT22;9758;48.640;8.148;2023-05-21T07:46:57;19.80;52.30
19248;DHT22;9758;48.640;8.148;2023-05-21T07:49:24;19.80;52.10
19248;DHT22;9758;48.640;8.148;2023-05-21T07:51:50;19.90;52.20
19248;DHT22;9758;48.640;8.148;2023-05-21T07:54:17;19.90;52.20
19248;DHT22;9758;48.640;8.148;2023-05-21T07:56:45;19.90;52.20
19248;DHT22;9758;48.640;8.148;2023-05-21T07:59:13;20.10;52.20
19248;DHT22;9758;48.640;8.148;2023-05-21T08:01:40;20.20;52.20
19248;DHT22;9758;48.640;8.148;2023-05-21T08:04:07;20.40;52.10
19248;DHT22;9758;48.640;8.148;2023-05-21T08:06:34;20.60;52.00
19248;DHT22;9758;48.640;8.148;2023-05-21T08:09:02;20.70;51.90
19248;DHT22;9758;48.640;8.148;2023-05-21T08:11:30;20.80;51.70
19248;DHT22;9758;48.640;8.148;2023-05-21T08:13:59;20.90;51.70
19248;DHT22;9758;48.640;8.148;2023-05-21T08:16:26;21.00;51.70
19248;DHT22;9758;48.640;8.148;2023-05-21T08:18:52;21.10;51.80
19248;DHT22;9758;48.640;8.148;2023-05-21T08:21:19;21.20;52.30
19248;DHT22;9758;48.640;8.148;2023-05-21T08:23:47;21.20;51.60
19248;DHT22;9758;48.640;8.148;2023-05-21T08:26:14;21.30;51.60
19248;DHT22;9758;48.640;8.148;2023-05-21T08:28:41;21.30;51.50
19248;DHT22;9758;48.640;8.148;2023-05-21T08:31:10;21.40;51.50
19248;DHT22;9758;48.640;8.148;2023-05-21T08:33:37;21.50;51.40
19248;DHT22;9758;48.640;8.148;2023-05-21T08:36:04;21.60;51.40
19248;DHT22;9758;48.640;8.148;2023-05-21T08:38:31;21.70;51.30
19248;DHT22;9758;48.640;8.148;2023-05-21T08:40:58;21.80;51.10
19248;DHT22;9758;48.640;8.148;2023-05-21T08:43:26;22.00;51.00
19248;DHT22;9758;48.640;8.148;2023-05-21T08:45:54;22.00;51.00
19248;DHT22;9758;48.640;8.148;2023-05-21T08:48:24;22.00;50.90
19248;DHT22;9758;48.640;8.148;2023-05-21T08:50:51;22.10;51.00
19248;DHT22;9758;48.640;8.148;2023-05-21T08:53:19;22.20;51.00
19248;DHT22;9758;48.640;8.148;2023-05-21T08:55:46;22.20;50.80
19248;DHT22;9758;48.640;8.148;2023-05-21T08:58:14;22.20;50.80
19248;DHT22;9758;48.640;8.148;2023-05-21T09:00:41;22.20;50.80
19248;DHT22;9758;48.640;8.148;2023-05-21T09:03:09;22.20;50.70
19248;DHT22;9758;48.640;8.148;2023-05-21T09:08:53;22.30;50.80
19248;DHT22;9758;48.640;8.148;2023-05-21T09:11:23;22.40;50.70
19248;DHT22;9758;48.640;8.148;2023-05-21T09:13:51;22.50;50.80
19248;DHT22;9758;48.640;8.148;2023-05-21T09:16:18;22.50;50.70
19248;DHT22;9758;48.640;8.148;2023-05-21T09:18:45;22.70;50.70
19248;DHT22;9758;48.640;8.148;2023-05-21T09:21:25;22.80;50.70
19248;DHT22;9758;48.640;8.148;2023-05-21T09:23:55;22.90;50.60
19248;DHT22;9758;48.640;8.148;2023-05-21T09:26:22;23.10;50.40
19248;DHT22;9758;48.640;8.148;2023-05-21T09:28:50;23.10;50.20
19248;DHT22;9758;48.640;8.148;2023-05-21T09:31:17;23.10;50.10
19248;DHT22;9758;48.640;8.148;2023-05-21T09:33:46;23.10;50.20
19248;DHT22;9758;48.640;8.148;2023-05-21T09:36:13;23.10;50.20
19248;DHT22;9758;48.640;8.148;2023-05-21T09:38:40;23.10;50.20
19248;DHT22;9758;48.640;8.148;2023-05-21T09:41:08;23.10;50.20
19248;DHT22;9758;48.640;8.148;2023-05-21T09:43:35;23.00;50.30
19248;DHT22;9758;48.640;8.148;2023-05-21T09:46:02;23.10;50.40
19248;DHT22;9758;48.640;8.148;2023-05-21T09:48:33;23.10;50.40
19248;DHT22;9758;48.640;8.148;2023-05-21T09:51:11;23.10;50.30
19248;DHT22;9758;48.640;8.148;2023-05-21T09:53:48;23.20;50.40
19248;DHT22;9758;48.640;8.148;2023-05-21T09:56:18;23.20;50.30
19248;DHT22;9758;48.640;8.148;2023-05-21T09:58:47;23.20;50.30
19248;DHT22;9758;48.640;8.148;2023-05-21T10:01:18;23.30;50.30
19248;DHT22;9758;48.640;8.148;2023-05-21T10:03:48;23.40;50.30
19248;DHT22;9758;48.640;8.148;2023-05-21T10:06:16;23.60;50.30
19248;DHT22;9758;48.640;8.148;2023-05-21T10:08:47;23.70;50.10
19248;DHT22;9758;48.640;8.148;2023-05-21T10:11:15;23.80;50.00
19248;DHT22;9758;48.640;8.148;2023-05-21T10:13:46;23.90;50.00
19248;DHT22;9758;48.640;8.148;2023-05-21T10:16:15;23.90;49.90
19248;DHT22;9758;48.640;8.148;2023-05-21T10:18:43;23.80;49.80
19248;DHT22;9758;48.640;8.148;2023-05-21T10:21:11;23.80;49.90
19248;DHT22;9758;48.640;8.148;2023-05-21T10:23:38;23.80;50.00
19248;DHT22;9758;48.640;8.148;2023-05-21T10:26:07;23.90;50.00
19248;DHT22;9758;48.640;8.148;2023-05-21T10:28:35;23.90;50.00
19248;DHT22;9758;48.640;8.148;2023-05-21T10:31:04;23.90;49.90
19248;DHT22;9758;48.640;8.148;2023-05-21T10:33:33;23.90;49.90
19248;DHT22;9758;48.640;8.148;2023-05-21T10:36:01;24.00;50.00
19248;DHT22;9758;48.640;8.148;2023-05-21T10:38:28;24.00;50.00
19248;DHT22;9758;48.640;8.148;2023-05-21T10:40:56;24.10;50.00
19248;DHT22;9758;48.640;8.148;2023-05-21T10:43:44;24.20;50.00
19248;DHT22;9758;48.640;8.148;2023-05-21T10:46:31;24.30;50.00
19248;DHT22;9758;48.640;8.148;2023-05-21T10:49:18;24.40;49.80
19248;DHT22;9758;48.640;8.148;2023-05-21T10:51:56;24.40;49.70
19248;DHT22;9758;48.640;8.148;2023-05-21T10:54:56;24.40;49.80
19248;DHT22;9758;48.640;8.148;2023-05-21T10:58:07;24.50;49.80
19248;DHT22;9758;48.640;8.148;2023-05-21T11:00:36;24.50;49.80
19248;DHT22;9758;48.640;8.148;2023-05-21T11:03:04;24.60;49.60
19248;DHT22;9758;48.640;8.148;2023-05-21T11:05:38;24.60;49.70
19248;DHT22;9758;48.640;8.148;2023-05-21T11:08:19;24.60;49.70
19248;DHT22;9758;48.640;8.148;2023-05-21T11:10:51;24.60;49.70
19248;DHT22;9758;48.640;8.148;2023-05-21T11:13:18;24.60;49.70
19248;DHT22;9758;48.640;8.148;2023-05-21T11:16:12;24.60;49.70
19248;DHT22;9758;48.640;8.148;2023-05-21T11:19:02;24.80;49.80
19248;DHT22;9758;48.640;8.148;2023-05-21T11:21:33;24.80;49.70
19248;DHT22;9758;48.640;8.148;2023-05-21T11:24:05;24.90;49.70
19248;DHT22;9758;48.640;8.148;2023-05-21T11:27:00;24.90;49.60
19248;DHT22;9758;48.640;8.148;2023-05-21T11:29:35;25.00;49.60
19248;DHT22;9758;48.640;8.148;2023-05-21T11:32:06;25.10;49.50
19248;DHT22;9758;48.640;8.148;2023-05-21T11:34:40;25.20;49.40
19248;DHT22;9758;48.640;8.148;2023-05-21T11:37:27;25.20;49.40
19248;DHT22;9758;48.640;8.148;2023-05-21T11:39:55;25.30;49.40
19248;DHT22;9758;48.640;8.148;2023-05-21T11:42:30;25.30;49.40
19248;DHT22;9758;48.640;8.148;2023-05-21T11:44:57;25.40;49.40
19248;DHT22;9758;48.640;8.148;2023-05-21T11:47:25;25.50;49.30
19248;DHT22;9758;48.640;8.148;2023-05-21T11:49:54;25.50;49.30
19248;DHT22;9758;48.640;8.148;2023-05-21T11:52:22;25.60;49.30
19248;DHT22;9758;48.640;8.148;2023-05-21T11:54:50;25.60;48.90
19248;DHT22;9758;48.640;8.148;2023-05-21T11:57:19;25.70;49.10
19248;DHT22;9758;48.640;8.148;2023-05-21T11:59:48;25.80;49.10
19248;DHT22;9758;48.640;8.148;2023-05-21T12:02:16;25.80;49.00
19248;DHT22;9758;48.640;8.148;2023-05-21T12:04:44;25.90;49.00
19248;DHT22;9758;48.640;8.148;2023-05-21T12:07:15;25.90;48.90
19248;DHT22;9758;48.640;8.148;2023-05-21T12:09:45;26.00;48.90
19248;DHT22;9758;48.640;8.148;2023-05-21T12:12:13;26.10;48.90
19248;DHT22;9758;48.640;8.148;2023-05-21T12:14:42;26.10;48.80
19248;DHT22;9758;48.640;8.148;2023-05-21T12:17:09;26.20;48.60
19248;DHT22;9758;48.640;8.148;2023-05-21T12:19:38;26.30;48.80
19248;DHT22;9758;48.640;8.148;2023-05-21T12:22:05;26.30;48.70
19248;DHT22;9758;48.640;8.148;2023-05-21T12:24:35;26.40;48.70
19248;DHT22;9758;48.640;8.148;2023-05-21T12:27:03;26.50;48.70
19248;DHT22;9758;48.640;8.148;2023-05-21T12:29:35;26.50;48.50
19248;DHT22;9758;48.640;8.148;2023-05-21T12:32:03;26.60;48.90
19248;DHT22;9758;48.640;8.148;2023-05-21T12:34:53;26.70;48.50
19248;DHT22;9758;48.640;8.148;2023-05-21T12:37:21;26.70;48.40
19248;DHT22;9758;48.640;8.148;2023-05-21T12:39:51;26.80;48.50
19248;DHT22;9758;48.640;8.148;2023-05-21T12:42:23;26.90;48.30
19248;DHT22;9758;48.640;8.148;2023-05-21T12:44:51;27.00;48.30
19248;DHT22;9758;48.640;8.148;2023-05-21T12:47:18;27.10;48.20
19248;DHT22;9758;48.640;8.148;2023-05-21T12:49:48;27.10;48.20
19248;DHT22;9758;48.640;8.148;2023-05-21T12:52:18;27.20;48.10
19248;DHT22;9758;48.640;8.148;2023-05-21T12:54:50;27.30;48.00
19248;DHT22;9758;48.640;8.148;2023-05-21T12:57:18;27.40;47.90
19248;DHT22;9758;48.640;8.148;2023-05-21T12:59:49;27.50;48.50
19248;DHT22;9758;48.640;8.148;2023-05-21T13:02:20;27.60;47.80
19248;DHT22;9758;48.640;8.148;2023-05-21T13:04:48;27.60;47.60
19248;DHT22;9758;48.640;8.148;2023-05-21T13:07:19;27.70;47.60
19248;DHT22;9758;48.640;8.148;2023-05-21T13:09:46;27.70;47.60
19248;DHT22;9758;48.640;8.148;2023-05-21T13:12:14;27.80;47.60
19248;DHT22;9758;48.640;8.148;2023-05-21T13:14:41;27.90;47.50
19248;DHT22;9758;48.640;8.148;2023-05-21T13:17:07;27.90;47.40
19248;DHT22;9758;48.640;8.148;2023-05-21T13:19:34;28.00;47.40
19248;DHT22;9758;48.640;8.148;2023-05-21T13:22:02;28.00;47.40
19248;DHT22;9758;48.640;8.148;2023-05-21T13:24:29;28.10;47.50
19248;DHT22;9758;48.640;8.148;2023-05-21T13:26:55;28.10;47.50
19248;DHT22;9758;48.640;8.148;2023-05-21T13:29:23;28.20;47.30
19248;DHT22;9758;48.640;8.148;2023-05-21T13:31:50;28.30;47.00
19248;DHT22;9758;48.640;8.148;2023-05-21T13:34:17;28.30;46.70
19248;DHT22;9758;48.640;8.148;2023-05-21T13:36:44;28.30;46.40
19248;DHT22;9758;48.640;8.148;2023-05-21T13:39:11;28.20;46.90
19248;DHT22;9758;48.640;8.148;2023-05-21T13:41:38;28.10;46.80
19248;DHT22;9758;48.640;8.148;2023-05-21T13:44:04;28.00;46.60
19248;DHT22;9758;48.640;8.148;2023-05-21T13:46:33;27.90;46.90
19248;DHT22;9758;48.640;8.148;2023-05-21T13:49:03;27.80;47.10
19248;DHT22;9758;48.640;8.148;2023-05-21T13:51:30;27.90;47.20
19248;DHT22;9758;48.640;8.148;2023-05-21T13:54:15;27.90;46.90
19248;DHT22;9758;48.640;8.148;2023-05-21T13:56:41;27.80;46.80
19248;DHT22;9758;48.640;8.148;2023-05-21T13:59:08;27.70;46.90
19248;DHT22;9758;48.640;8.148;2023-05-21T14:01:36;27.70;47.00
19248;DHT22;9758;48.640;8.148;2023-05-21T14:04:03;27.70;47.00
19248;DHT22;9758;48.640;8.148;2023-05-21T14:06:31;27.70;47.00
19248;DHT22;9758;48.640;8.148;2023-05-21T14:08:58;27.60;47.00
19248;DHT22;9758;48.640;8.148;2023-05-21T14:11:26;27.60;47.00
19248;DHT22;9758;48.640;8.148;2023-05-21T14:13:53;27.60;46.90
19248;DHT22;9758;48.640;8.148;2023-05-21T14:16:20;27.60;47.00
19248;DHT22;9758;48.640;8.148;2023-05-21T14:18:50;27.50;46.80
19248;DHT22;9758;48.640;8.148;2023-05-21T14:21:17;27.50;47.10
19248;DHT22;9758;48.640;8.148;2023-05-21T14:23:44;27.50;47.20
19248;DHT22;9758;48.640;8.148;2023-05-21T14:26:11;27.50;47.10
19248;DHT22;9758;48.640;8.148;2023-05-21T14:28:37;27.50;47.10
19248;DHT22;9758;48.640;8.148;2023-05-21T14:31:04;27.50;47.10
19248;DHT22;9758;48.640;8.148;2023-05-21T14:33:31;27.60;47.10
19248;DHT22;9758;48.640;8.148;2023-05-21T14:36:00;27.70;47.10
19248;DHT22;9758;48.640;8.148;2023-05-21T14:38:27;27.70;46.80
19248;DHT22;9758;48.640;8.148;2023-05-21T14:40:54;27.70;46.80
19248;DHT22;9758;48.640;8.148;2023-05-21T14:43:21;27.80;46.80
19248;DHT22;9758;48.640;8.148;2023-05-21T14:45:48;27.80;46.70
19248;DHT22;9758;48.640;8.148;2023-05-21T14:48:15;27.80;46.80
19248;DHT22;9758;48.640;8.148;2023-05-21T14:50:43;27.70;46.90
19248;DHT22;9758;48.640;8.148;2023-05-21T14:53:12;27.70;46.80
19248;DHT22;9758;48.640;8.148;2023-05-21T14:55:39;27.80;46.60
19248;DHT22;9758;48.640;8.148;2023-05-21T14:58:06;27.80;46.70
19248;DHT22;9758;48.640;8.148;2023-05-21T15:00:33;27.90;46.80
19248;DHT22;9758;48.640;8.148;2023-05-21T15:03:00;27.90;46.80
19248;DHT22;9758;48.640;8.148;2023-05-21T15:05:28;28.00;46.90
19248;DHT22;9758;48.640;8.148;2023-05-21T15:07:54;28.00;46.80
19248;DHT22;9758;48.640;8.148;2023-05-21T15:10:23;28.10;46.80
19248;DHT22;9758;48.640;8.148;2023-05-21T15:12:51;28.20;46.60
19248;DHT22;9758;48.640;8.148;2023-05-21T15:15:18;28.20;46.60
19248;DHT22;9758;48.640;8.148;2023-05-21T15:17:46;28.30;46.60
19248;DHT22;9758;48.640;8.148;2023-05-21T15:20:13;28.30;46.60
19248;DHT22;9758;48.640;8.148;2023-05-21T15:22:41;28.30;46.30
19248;DHT22;9758;48.640;8.148;2023-05-21T15:25:08;28.30;46.40
19248;DHT22;9758;48.640;8.148;2023-05-21T15:27:37;28.20;46.50
19248;DHT22;9758;48.640;8.148;2023-05-21T15:30:04;28.10;46.40
19248;DHT22;9758;48.640;8.148;2023-05-21T15:32:31;28.00;46.40
19248;DHT22;9758;48.640;8.148;2023-05-21T15:34:58;28.00;46.50
19248;DHT22;9758;48.640;8.148;2023-05-21T15:37:25;27.90;46.30
19248;DHT22;9758;48.640;8.148;2023-05-21T15:39:51;27.80;46.40
19248;DHT22;9758;48.640;8.148;2023-05-21T15:42:18;27.80;46.50
19248;DHT22;9758;48.640;8.148;2023-05-21T15:44:46;27.70;46.60
19248;DHT22;9758;48.640;8.148;2023-05-21T15:47:13;27.80;46.80
19248;DHT22;9758;48.640;8.148;2023-05-21T15:49:40;27.80;46.90
19248;DHT22;9758;48.640;8.148;2023-05-21T15:52:07;28.00;46.90
19248;DHT22;9758;48.640;8.148;2023-05-21T15:54:33;28.20;46.80
19248;DHT22;9758;48.640;8.148;2023-05-21T15:57:00;28.40;46.60